createdAt,value
2019-04-28T00:00:26.281Z,637.20
2019-04-28T00:01:01.603Z,635.20
2019-04-28T00:01:36.996Z,629.40
2019-04-28T00:02:12.310Z,626.50
2019-04-28T00:02:47.322Z,593.20
2019-04-28T00:03:22.669Z,620.20
2019-04-28T00:03:57.849Z,625.50
2019-04-28T00:04:33.073Z,631.90
2019-04-28T00:05:08.384Z,631.80
2019-04-28T00:05:43.785Z,643.30
2019-04-28T00:06:18.887Z,648.60
2019-04-28T00:06:54.086Z,642.20
2019-04-28T00:07:29.369Z,635.10
2019-04-28T00:08:04.841Z,633.40
2019-04-28T00:08:40.220Z,642.70
2019-04-28T00:09:15.848Z,643.90
2019-04-28T00:09:51.235Z,648.20
2019-04-28T00:10:26.437Z,632.80
2019-04-28T00:11:01.907Z,641.40
2019-04-28T00:11:37.068Z,649.00
2019-04-28T00:12:12.346Z,645.40
2019-04-28T00:12:47.468Z,649.70
2019-04-28T00:13:22.696Z,649.90
2019-04-28T00:13:57.991Z,639.30
2019-04-28T00:14:33.275Z,611.00
2019-04-28T00:15:08.487Z,635.50
2019-04-28T00:15:43.891Z,654.10
2019-04-28T00:16:21.004Z,658.80
2019-04-28T00:16:54.285Z,643.00
2019-04-28T00:17:30.881Z,644.50
2019-04-28T00:18:05.187Z,649.60
2019-04-28T00:18:41.588Z,647.90
2019-04-28T00:19:16.428Z,644.70
2019-04-28T00:19:51.840Z,652.40
2019-04-28T00:20:27.152Z,651.10
2019-04-28T00:21:02.375Z,648.80
2019-04-28T00:21:37.857Z,629.90
2019-04-28T00:22:13.062Z,620.20
2019-04-28T00:22:48.340Z,645.00
2019-04-28T00:23:23.790Z,635.30
2019-04-28T00:23:58.888Z,646.20
2019-04-28T00:24:34.108Z,639.70
2019-04-28T00:25:11.421Z,640.40
2019-04-28T00:25:44.805Z,653.50
2019-04-28T00:26:21.169Z,648.30
2019-04-28T00:26:55.696Z,652.10
2019-04-28T00:27:31.597Z,644.40
2019-04-28T00:28:06.414Z,642.00
2019-04-28T00:28:41.768Z,650.10
2019-04-28T00:29:16.921Z,650.20
2019-04-28T00:29:52.700Z,646.20
2019-04-28T00:30:28.016Z,652.70
2019-04-28T00:31:03.608Z,625.60
2019-04-28T00:31:39.022Z,605.00
2019-04-28T00:32:14.320Z,636.70
2019-04-28T00:32:51.762Z,646.20
2019-04-28T00:33:25.273Z,623.60
2019-04-28T00:34:01.340Z,632.70
2019-04-28T00:34:35.963Z,615.80
2019-04-28T00:35:11.793Z,613.10
2019-04-28T00:35:46.682Z,639.50
2019-04-28T00:36:22.105Z,640.70
2019-04-28T00:36:57.495Z,629.00
2019-04-28T00:37:32.900Z,603.60
2019-04-28T00:38:08.390Z,643.00
2019-04-28T00:38:44.034Z,635.70
2019-04-28T00:39:21.206Z,639.50
2019-04-28T00:39:54.834Z,631.10
2019-04-28T00:40:31.654Z,619.70
2019-04-28T00:41:05.829Z,627.30
2019-04-28T00:41:42.055Z,619.70
2019-04-28T00:42:16.529Z,637.30
2019-04-28T00:42:51.924Z,642.10
2019-04-28T00:43:27.268Z,652.70
2019-04-28T00:44:02.344Z,659.60
2019-04-28T00:44:38.049Z,652.40
2019-04-28T00:45:13.243Z,650.10
2019-04-28T00:45:48.553Z,638.90
2019-04-28T00:46:23.632Z,641.40
2019-04-28T00:46:58.752Z,650.90
2019-04-28T00:47:34.366Z,659.10
2019-04-28T00:48:10.951Z,656.70
2019-04-28T00:48:45.192Z,659.80
2019-04-28T00:49:21.482Z,653.80
2019-04-28T00:49:55.819Z,657.60
2019-04-28T00:50:31.580Z,634.60
2019-04-28T00:51:06.233Z,605.80
2019-04-28T00:51:41.747Z,617.00
2019-04-28T00:52:17.328Z,639.90
2019-04-28T00:52:52.755Z,641.50
2019-04-28T00:53:28.271Z,653.30
2019-04-28T00:54:03.492Z,648.90
2019-04-28T00:54:38.893Z,655.50
2019-04-28T00:55:14.056Z,658.80
2019-04-28T00:55:49.338Z,642.60
2019-04-28T00:56:24.935Z,620.70
2019-04-28T00:57:01.473Z,641.50
2019-04-28T00:57:35.836Z,627.10
2019-04-28T00:58:11.121Z,638.40
2019-04-28T00:58:46.568Z,641.90
2019-04-28T00:59:21.966Z,614.80
2019-04-28T00:59:58.706Z,620.30
2019-04-28T01:00:32.571Z,593.30
2019-04-28T01:01:07.893Z,597.60
2019-04-28T01:01:42.982Z,626.10
2019-04-28T01:02:18.293Z,645.50
2019-04-28T01:02:53.694Z,618.20
2019-04-28T01:03:29.026Z,604.70
2019-04-28T01:04:04.603Z,654.00
2019-04-28T01:04:41.326Z,653.00
2019-04-28T01:05:15.210Z,654.20
2019-04-28T01:05:50.862Z,646.20
2019-04-28T01:06:25.710Z,645.50
2019-04-28T01:07:01.612Z,617.40
2019-04-28T01:07:36.540Z,622.50
2019-04-28T01:08:11.960Z,648.00
2019-04-28T01:08:47.167Z,622.90
2019-04-28T01:09:22.702Z,626.30
2019-04-28T01:09:57.892Z,589.70
2019-04-28T01:10:33.203Z,617.20
2019-04-28T01:11:08.422Z,617.60
2019-04-28T01:11:43.728Z,627.20
2019-04-28T01:12:20.682Z,606.20
2019-04-28T01:12:54.136Z,616.80
2019-04-28T01:13:31.830Z,628.50
2019-04-28T01:14:05.416Z,604.50
2019-04-28T01:14:40.986Z,604.80
2019-04-28T01:15:16.044Z,639.00
2019-04-28T01:15:51.336Z,649.50
2019-04-28T01:16:26.977Z,645.70
2019-04-28T01:17:02.475Z,642.40
2019-04-28T01:17:39.646Z,645.10
2019-04-28T01:18:13.281Z,644.70
2019-04-28T01:18:50.210Z,616.50
2019-04-28T01:19:24.590Z,622.50
2019-04-28T01:19:59.853Z,646.90
2019-04-28T01:20:35.300Z,626.90
2019-04-28T01:21:10.687Z,630.50
2019-04-28T01:21:46.108Z,646.50
2019-04-28T01:22:21.477Z,632.90
2019-04-28T01:22:56.757Z,627.20
2019-04-28T01:23:32.217Z,654.00
2019-04-28T01:24:09.500Z,650.60
2019-04-28T01:24:43.150Z,643.00
2019-04-28T01:25:20.164Z,600.70
2019-04-28T01:25:53.762Z,623.90
2019-04-28T01:26:29.970Z,663.10
2019-04-28T01:27:04.567Z,628.60
2019-04-28T01:27:40.310Z,628.00
2019-04-28T01:28:15.495Z,635.20
2019-04-28T01:28:50.805Z,596.40
2019-04-28T01:29:26.376Z,620.80
2019-04-28T01:30:08.034Z,633.70
2019-04-28T01:30:37.086Z,636.10
2019-04-28T01:31:12.568Z,640.80
2019-04-28T01:31:49.336Z,631.50
2019-04-28T01:32:23.288Z,646.50
2019-04-28T01:32:59.653Z,622.00
2019-04-28T01:33:34.135Z,596.30
2019-04-28T01:34:10.329Z,616.20
2019-04-28T01:34:45.266Z,603.10
2019-04-28T01:35:21.084Z,592.40
2019-04-28T01:35:55.966Z,592.10
2019-04-28T01:36:31.393Z,590.90
2019-04-28T01:37:06.572Z,612.00
2019-04-28T01:37:41.705Z,622.60
2019-04-28T01:38:17.040Z,616.90
2019-04-28T01:38:52.335Z,601.70
2019-04-28T01:39:29.592Z,605.50
2019-04-28T01:40:02.860Z,589.10
2019-04-28T01:40:38.264Z,598.70
2019-04-28T01:41:13.559Z,610.10
2019-04-28T01:41:49.613Z,582.50
2019-04-28T01:42:24.284Z,612.20
2019-04-28T01:42:59.839Z,615.60
2019-04-28T01:43:35.128Z,607.40
2019-04-28T01:44:10.520Z,636.80
2019-04-28T01:44:46.134Z,645.00
2019-04-28T01:45:21.713Z,620.40
2019-04-28T01:45:57.032Z,585.00
2019-04-28T01:46:32.134Z,592.90
2019-04-28T01:47:07.250Z,628.70
2019-04-28T01:47:42.779Z,644.30
2019-04-28T01:48:19.773Z,650.20
2019-04-28T01:48:53.222Z,611.30
2019-04-28T01:49:29.495Z,582.90
2019-04-28T01:50:04.035Z,612.00
2019-04-28T01:50:40.031Z,616.00
2019-04-28T01:51:14.847Z,635.70
2019-04-28T01:51:50.275Z,621.60
2019-04-28T01:52:25.377Z,583.30
2019-04-28T01:53:01.031Z,609.30
2019-04-28T01:53:36.528Z,631.80
2019-04-28T01:54:11.980Z,615.50
2019-04-28T01:54:47.373Z,634.60
2019-04-28T01:55:22.689Z,637.90
2019-04-28T01:55:59.457Z,629.10
2019-04-28T01:56:33.730Z,628.30
2019-04-28T01:57:10.095Z,628.00
2019-04-28T01:57:44.250Z,642.30
2019-04-28T01:58:20.469Z,635.70
2019-04-28T01:58:54.875Z,637.60
2019-04-28T01:59:30.429Z,641.80
2019-04-28T02:00:19.117Z,643.40
2019-04-28T02:00:41.278Z,632.50
2019-04-28T02:01:16.586Z,633.80
2019-04-28T02:01:51.888Z,649.20
2019-04-28T02:02:27.111Z,644.90
2019-04-28T02:03:02.496Z,624.10
2019-04-28T02:03:37.754Z,634.90
2019-04-28T02:04:13.333Z,633.60
2019-04-28T02:04:49.766Z,634.70
2019-04-28T02:05:23.736Z,626.60
2019-04-28T02:06:00.129Z,632.10
2019-04-28T02:06:34.447Z,617.90
2019-04-28T02:07:11.043Z,599.10
2019-04-28T02:07:45.066Z,628.00
2019-04-28T02:08:20.516Z,648.40
2019-04-28T02:08:55.715Z,642.90
2019-04-28T02:09:31.027Z,647.30
2019-04-28T02:10:06.020Z,646.40
2019-04-28T02:10:41.449Z,649.90
2019-04-28T02:11:16.842Z,653.30
2019-04-28T02:11:52.353Z,631.40
2019-04-28T02:12:27.645Z,628.40
2019-04-28T02:13:03.067Z,642.20
2019-04-28T02:13:39.739Z,626.90
2019-04-28T02:14:13.696Z,617.20
2019-04-28T02:14:50.291Z,643.90
2019-04-28T02:15:24.391Z,643.70
2019-04-28T02:16:00.041Z,643.10
2019-04-28T02:16:35.106Z,631.40
2019-04-28T02:17:10.451Z,642.10
2019-04-28T02:17:45.732Z,652.70
2019-04-28T02:18:20.947Z,646.10
2019-04-28T02:18:56.267Z,640.80
2019-04-28T02:19:33.093Z,642.50
2019-04-28T02:20:06.870Z,639.90
2019-04-28T02:20:42.452Z,644.40
2019-04-28T02:21:19.534Z,614.20
2019-04-28T02:21:53.681Z,622.00
2019-04-28T02:22:29.928Z,643.80
2019-04-28T02:23:04.384Z,615.50
2019-04-28T02:23:39.720Z,631.40
2019-04-28T02:24:15.210Z,649.80
2019-04-28T02:24:50.725Z,652.80
2019-04-28T02:25:26.116Z,632.70
2019-04-28T02:26:01.320Z,636.20
2019-04-28T02:26:36.707Z,645.20
2019-04-28T02:27:12.217Z,633.40
2019-04-28T02:27:47.800Z,631.10
2019-04-28T02:28:23.105Z,627.90
2019-04-28T02:29:00.233Z,635.50
2019-04-28T02:29:34.043Z,639.90
2019-04-28T02:30:11.419Z,643.30
2019-04-28T02:30:49.174Z,621.70
2019-04-28T02:31:21.526Z,627.20
2019-04-28T02:31:55.858Z,634.90
2019-04-28T02:32:31.354Z,645.90
2019-04-28T02:33:06.982Z,649.40
2019-04-28T02:33:42.287Z,646.50
2019-04-28T02:34:17.361Z,644.90
2019-04-28T02:34:52.643Z,644.10
2019-04-28T02:35:27.760Z,614.60
2019-04-28T02:36:03.049Z,622.20
2019-04-28T02:36:40.546Z,650.90
2019-04-28T02:37:13.147Z,642.20
2019-04-28T02:37:50.373Z,640.90
2019-04-28T02:38:23.838Z,643.00
2019-04-28T02:39:00.791Z,641.40
2019-04-28T02:39:34.575Z,655.20
2019-04-28T02:40:10.609Z,647.50
2019-04-28T02:40:45.402Z,632.60
2019-04-28T02:41:20.867Z,632.20
2019-04-28T02:41:55.707Z,639.80
2019-04-28T02:42:31.327Z,643.00
2019-04-28T02:43:06.728Z,635.70
2019-04-28T02:43:41.867Z,636.20
2019-04-28T02:44:20.680Z,641.30
2019-04-28T02:44:53.313Z,635.60
2019-04-28T02:45:31.387Z,624.70
2019-04-28T02:46:03.946Z,616.70
2019-04-28T02:46:40.757Z,605.10
2019-04-28T02:47:14.457Z,630.90
2019-04-28T02:47:52.070Z,625.90
2019-04-28T02:48:25.152Z,640.60
2019-04-28T02:49:00.903Z,641.30
2019-04-28T02:49:35.886Z,642.30
2019-04-28T02:50:11.506Z,640.90
2019-04-28T02:50:46.790Z,643.10
2019-04-28T02:51:21.783Z,642.20
2019-04-28T02:51:57.508Z,649.00
2019-04-28T02:52:33.000Z,654.60
2019-04-28T02:53:10.813Z,658.40
2019-04-28T02:53:44.334Z,655.10
2019-04-28T02:54:20.352Z,652.70
2019-04-28T02:54:54.769Z,646.20
2019-04-28T02:55:31.608Z,642.00
2019-04-28T02:56:05.652Z,641.00
2019-04-28T02:56:43.664Z,649.00
2019-04-28T02:57:16.549Z,639.00
2019-04-28T02:57:52.161Z,635.00
2019-04-28T02:58:27.337Z,646.60
2019-04-28T02:59:02.675Z,642.30
2019-04-28T02:59:40.782Z,646.60
2019-04-28T03:00:13.185Z,652.50
2019-04-28T03:01:04.942Z,646.50
2019-04-28T03:01:26.599Z,622.00
2019-04-28T03:02:00.702Z,643.30
2019-04-28T03:02:34.806Z,635.40
2019-04-28T03:03:11.020Z,623.70
2019-04-28T03:03:45.229Z,653.80
2019-04-28T03:04:20.537Z,646.40
2019-04-28T03:04:56.052Z,653.60
2019-04-28T03:05:33.491Z,648.80
2019-04-28T03:06:06.879Z,648.60
2019-04-28T03:06:42.105Z,653.30
2019-04-28T03:07:17.453Z,635.30
2019-04-28T03:07:52.847Z,642.40
2019-04-28T03:08:30.474Z,641.80
2019-04-28T03:09:03.384Z,646.80
2019-04-28T03:09:40.384Z,645.70
2019-04-28T03:10:14.211Z,643.40
2019-04-28T03:10:50.916Z,642.60
2019-04-28T03:11:24.403Z,630.20
2019-04-28T03:12:01.500Z,634.10
2019-04-28T03:12:35.684Z,643.00
2019-04-28T03:13:13.238Z,644.90
2019-04-28T03:13:46.187Z,649.80
2019-04-28T03:14:21.444Z,644.60
2019-04-28T03:14:56.837Z,629.20
2019-04-28T03:15:32.286Z,648.30
2019-04-28T03:16:07.580Z,627.30
2019-04-28T03:16:42.804Z,632.60
2019-04-28T03:17:20.544Z,652.90
2019-04-28T03:17:53.614Z,648.70
2019-04-28T03:18:31.390Z,647.20
2019-04-28T03:19:04.747Z,649.20
2019-04-28T03:19:41.494Z,646.30
2019-04-28T03:20:15.671Z,652.90
2019-04-28T03:20:51.615Z,657.20
2019-04-28T03:21:26.292Z,657.50
2019-04-28T03:22:01.683Z,642.50
2019-04-28T03:22:37.094Z,638.60
2019-04-28T03:23:12.576Z,652.70
2019-04-28T03:23:47.914Z,651.10
2019-04-28T03:24:23.129Z,663.20
2019-04-28T03:25:00.796Z,655.40
2019-04-28T03:25:33.837Z,658.50
2019-04-28T03:26:11.204Z,661.10
2019-04-28T03:26:44.472Z,637.00
2019-04-28T03:27:20.496Z,642.10
2019-04-28T03:27:55.106Z,652.30
2019-04-28T03:28:33.319Z,656.70
2019-04-28T03:29:06.212Z,644.20
2019-04-28T03:29:41.650Z,634.20
2019-04-28T03:30:17.140Z,630.00
2019-04-28T03:30:54.016Z,629.20
2019-04-28T03:31:51.106Z,660.50
2019-04-28T03:32:18.385Z,660.80
2019-04-28T03:32:47.315Z,661.50
2019-04-28T03:33:18.870Z,659.40
2019-04-28T03:33:54.806Z,652.30
2019-04-28T03:34:24.909Z,656.40
2019-04-28T03:35:03.065Z,651.50
2019-04-28T03:35:35.538Z,639.30
2019-04-28T03:36:15.381Z,638.60
2019-04-28T03:36:46.204Z,645.10
2019-04-28T03:37:24.014Z,628.90
2019-04-28T03:37:56.804Z,625.20
2019-04-28T03:38:32.484Z,642.20
2019-04-28T03:39:10.849Z,655.30
2019-04-28T03:39:43.216Z,644.60
2019-04-28T03:40:21.089Z,623.20
2019-04-28T03:40:54.153Z,618.70
2019-04-28T03:41:31.036Z,624.40
2019-04-28T03:42:04.756Z,640.30
2019-04-28T03:42:41.141Z,651.60
2019-04-28T03:43:15.537Z,648.50
2019-04-28T03:43:51.436Z,644.60
2019-04-28T03:44:26.282Z,646.20
2019-04-28T03:45:01.716Z,655.40
2019-04-28T03:45:36.989Z,657.00
2019-04-28T03:46:12.199Z,636.80
2019-04-28T03:46:47.385Z,636.30
2019-04-28T03:47:22.811Z,646.80
2019-04-28T03:48:00.196Z,645.30
2019-04-28T03:48:33.967Z,643.70
2019-04-28T03:49:10.822Z,652.10
2019-04-28T03:49:44.385Z,643.10
2019-04-28T03:50:20.194Z,641.70
2019-04-28T03:50:54.899Z,626.60
2019-04-28T03:51:30.920Z,635.60
2019-04-28T03:52:05.757Z,655.30
2019-04-28T03:52:41.533Z,649.20
2019-04-28T03:53:16.525Z,634.50
2019-04-28T03:53:52.131Z,646.00
2019-04-28T03:54:30.200Z,653.00
2019-04-28T03:55:03.166Z,644.10
2019-04-28T03:55:41.336Z,650.20
2019-04-28T03:56:14.058Z,662.40
2019-04-28T03:56:50.208Z,664.90
2019-04-28T03:57:24.652Z,654.10
2019-04-28T03:58:00.965Z,645.20
2019-04-28T03:58:35.861Z,648.20
2019-04-28T03:59:11.227Z,638.70
2019-04-28T03:59:46.330Z,622.90
2019-04-28T04:00:21.973Z,648.80
2019-04-28T04:00:56.852Z,653.70
2019-04-28T04:01:32.167Z,648.20
2019-04-28T04:02:07.451Z,644.90
2019-04-28T04:02:43.074Z,643.70
2019-04-28T04:03:20.680Z,644.90
2019-04-28T04:03:53.877Z,649.20
2019-04-28T04:04:29.104Z,633.90
2019-04-28T04:05:04.731Z,631.60
2019-04-28T04:05:40.639Z,640.90
2019-04-28T04:06:15.121Z,639.00
2019-04-28T04:06:50.894Z,643.50
2019-04-28T04:07:25.827Z,648.70
2019-04-28T04:08:01.527Z,646.30
2019-04-28T04:08:36.857Z,608.20
2019-04-28T04:09:12.138Z,628.50
2019-04-28T04:09:47.659Z,637.00
2019-04-28T04:10:23.230Z,635.10
2019-04-28T04:11:00.239Z,632.30
2019-04-28T04:11:33.836Z,637.00
2019-04-28T04:12:11.137Z,639.40
2019-04-28T04:12:44.459Z,632.90
2019-04-28T04:13:20.103Z,627.90
2019-04-28T04:13:55.213Z,638.20
2019-04-28T04:14:31.050Z,637.60
2019-04-28T04:15:05.846Z,633.10
2019-04-28T04:15:41.449Z,608.40
2019-04-28T04:16:16.450Z,630.70
2019-04-28T04:16:51.769Z,652.90
2019-04-28T04:17:27.239Z,658.30
2019-04-28T04:18:02.771Z,626.20
2019-04-28T04:18:40.484Z,635.60
2019-04-28T04:19:13.095Z,647.30
2019-04-28T04:19:50.379Z,646.20
2019-04-28T04:20:24.405Z,636.30
2019-04-28T04:21:00.806Z,643.30
2019-04-28T04:21:35.217Z,657.20
2019-04-28T04:22:10.294Z,639.00
2019-04-28T04:22:45.629Z,622.30
2019-04-28T04:23:23.138Z,635.20
2019-04-28T04:23:56.327Z,629.90
2019-04-28T04:24:31.850Z,627.00
2019-04-28T04:25:09.086Z,638.40
2019-04-28T04:25:42.248Z,648.50
2019-04-28T04:26:17.462Z,654.00
2019-04-28T04:26:52.758Z,650.20
2019-04-28T04:27:30.686Z,654.40
2019-04-28T04:28:03.663Z,652.90
2019-04-28T04:28:41.340Z,611.10
2019-04-28T04:29:13.791Z,600.20
2019-04-28T04:29:50.962Z,641.00
2019-04-28T04:30:24.634Z,655.10
2019-04-28T04:31:02.733Z,652.00
2019-04-28T04:31:35.346Z,641.90
2019-04-28T04:32:20.509Z,642.10
2019-04-28T04:32:45.866Z,635.40
2019-04-28T04:33:21.308Z,651.10
2019-04-28T04:33:56.689Z,643.50
2019-04-28T04:34:31.914Z,636.40
2019-04-28T04:35:07.108Z,639.30
2019-04-28T04:35:43.618Z,644.00
2019-04-28T04:36:17.807Z,650.00
2019-04-28T04:36:52.937Z,655.30
2019-04-28T04:37:30.609Z,647.40
2019-04-28T04:38:03.738Z,637.00
2019-04-28T04:38:43.288Z,642.20
2019-04-28T04:39:14.364Z,640.80
2019-04-28T04:39:51.413Z,638.40
2019-04-28T04:40:25.387Z,639.40
2019-04-28T04:41:01.412Z,642.10
2019-04-28T04:41:36.304Z,642.00
2019-04-28T04:42:11.782Z,644.80
2019-04-28T04:42:47.012Z,642.70
2019-04-28T04:43:23.351Z,645.40
2019-04-28T04:43:57.810Z,643.40
2019-04-28T04:44:33.254Z,651.80
2019-04-28T04:45:10.528Z,648.10
2019-04-28T04:45:44.407Z,647.30
2019-04-28T04:46:22.149Z,643.60
2019-04-28T04:46:55.427Z,637.10
2019-04-28T04:47:32.818Z,634.40
2019-04-28T04:48:05.953Z,653.80
2019-04-28T04:48:41.057Z,657.70
2019-04-28T04:49:16.378Z,646.10
2019-04-28T04:49:51.884Z,637.10
2019-04-28T04:50:27.076Z,644.40
2019-04-28T04:51:02.283Z,655.30
2019-04-28T04:51:37.463Z,649.70
2019-04-28T04:52:12.776Z,648.10
2019-04-28T04:52:50.060Z,643.10
2019-04-28T04:53:23.793Z,644.60
2019-04-28T04:54:01.007Z,656.10
2019-04-28T04:54:36.802Z,651.60
2019-04-28T04:55:11.095Z,651.80
2019-04-28T04:55:44.737Z,640.80
2019-04-28T04:56:20.961Z,637.00
2019-04-28T04:56:55.463Z,647.50
2019-04-28T04:57:32.560Z,655.30
2019-04-28T04:58:06.681Z,661.40
2019-04-28T04:58:41.767Z,662.50
2019-04-28T04:59:17.088Z,650.60
2019-04-28T04:59:52.396Z,650.90
2019-04-28T05:00:27.716Z,662.60
2019-04-28T05:01:03.405Z,671.50
2019-04-28T05:01:40.438Z,662.50
2019-04-28T05:02:26.535Z,662.80
2019-04-28T05:02:52.928Z,658.70
2019-04-28T05:03:24.749Z,632.40
2019-04-28T05:04:00.064Z,655.10
2019-04-28T05:04:35.252Z,665.70
2019-04-28T05:05:11.825Z,663.40
2019-04-28T05:05:46.006Z,660.40
2019-04-28T05:06:21.226Z,645.20
2019-04-28T05:06:56.408Z,661.60
2019-04-28T05:07:31.930Z,667.30
2019-04-28T05:08:07.113Z,655.60
2019-04-28T05:08:42.731Z,661.20
2019-04-28T05:09:19.529Z,651.20
2019-04-28T05:09:53.271Z,650.40
2019-04-28T05:10:30.303Z,661.20
2019-04-28T05:11:03.997Z,658.10
2019-04-28T05:11:39.975Z,649.90
2019-04-28T05:12:15.050Z,650.20
2019-04-28T05:12:51.846Z,641.10
2019-04-28T05:13:26.564Z,633.40
2019-04-28T05:14:01.935Z,653.10
2019-04-28T05:14:37.357Z,665.80
2019-04-28T05:15:12.680Z,669.30
2019-04-28T05:15:48.000Z,673.20
2019-04-28T05:16:23.273Z,669.40
2019-04-28T05:17:00.679Z,656.70
2019-04-28T05:17:33.962Z,661.00
2019-04-28T05:18:10.130Z,658.70
2019-04-28T05:18:45.066Z,654.90
2019-04-28T05:19:20.376Z,652.80
2019-04-28T05:19:55.900Z,650.00
2019-04-28T05:20:31.323Z,655.10
2019-04-28T05:21:06.815Z,653.30
2019-04-28T05:21:42.247Z,655.20
2019-04-28T05:22:17.532Z,659.00
2019-04-28T05:22:52.752Z,657.60
2019-04-28T05:23:29.722Z,663.70
2019-04-28T05:24:03.762Z,667.80
2019-04-28T05:24:40.279Z,660.20
2019-04-28T05:25:14.382Z,656.20
2019-04-28T05:25:49.751Z,670.70
2019-04-28T05:26:24.886Z,678.10
2019-04-28T05:27:00.084Z,663.60
2019-04-28T05:27:35.404Z,658.40
2019-04-28T05:28:10.595Z,660.90
2019-04-28T05:28:51.506Z,672.00
2019-04-28T05:29:26.521Z,685.50
2019-04-28T05:30:01.451Z,665.00
2019-04-28T05:30:34.776Z,642.40
2019-04-28T05:31:11.306Z,664.70
2019-04-28T05:31:43.198Z,675.60
2019-04-28T05:32:20.416Z,675.50
2019-04-28T05:32:56.244Z,673.10
2019-04-28T05:33:33.770Z,662.20
2019-04-28T05:34:08.018Z,656.80
2019-04-28T05:34:46.518Z,664.90
2019-04-28T05:35:17.627Z,660.80
2019-04-28T05:35:54.556Z,675.40
2019-04-28T05:36:26.427Z,682.10
2019-04-28T05:37:01.939Z,678.20
2019-04-28T05:37:37.245Z,688.90
2019-04-28T05:38:12.585Z,685.50
2019-04-28T05:38:49.563Z,689.80
2019-04-28T05:39:23.335Z,679.20
2019-04-28T05:40:00.652Z,694.30
2019-04-28T05:40:34.051Z,693.00
2019-04-28T05:41:10.553Z,689.70
2019-04-28T05:41:44.681Z,677.40
2019-04-28T05:42:20.070Z,676.40
2019-04-28T05:42:55.389Z,690.10
2019-04-28T05:43:30.888Z,697.00
2019-04-28T05:44:06.502Z,686.60
2019-04-28T05:44:42.128Z,679.60
2019-04-28T05:45:17.755Z,681.20
2019-04-28T05:45:53.070Z,683.10
2019-04-28T05:46:29.931Z,694.30
2019-04-28T05:47:03.880Z,698.30
2019-04-28T05:47:40.759Z,705.10
2019-04-28T05:48:14.506Z,710.80
2019-04-28T05:48:51.198Z,698.00
2019-04-28T05:49:24.948Z,704.90
2019-04-28T05:50:00.507Z,706.10
2019-04-28T05:50:35.601Z,699.90
2019-04-28T05:51:11.118Z,705.90
2019-04-28T05:51:46.505Z,702.60
2019-04-28T05:52:22.113Z,707.90
2019-04-28T05:52:57.704Z,717.40
2019-04-28T05:53:33.023Z,710.10
2019-04-28T05:54:09.757Z,715.70
2019-04-28T05:54:44.185Z,721.60
2019-04-28T05:55:20.420Z,718.90
2019-04-28T05:55:55.109Z,717.50
2019-04-28T05:56:30.514Z,721.60
2019-04-28T05:57:05.755Z,687.90
2019-04-28T05:57:40.738Z,684.80
2019-04-28T05:58:16.253Z,700.50
2019-04-28T05:58:51.645Z,719.60
2019-04-28T05:59:26.968Z,716.20
2019-04-28T06:00:03.559Z,709.70
2019-04-28T06:00:37.382Z,706.40
2019-04-28T06:01:12.875Z,713.00
2019-04-28T06:01:50.472Z,722.30
2019-04-28T06:02:23.772Z,721.70
2019-04-28T06:03:00.582Z,717.30
2019-04-28T06:03:34.389Z,717.40
2019-04-28T06:04:11.145Z,722.30
2019-04-28T06:04:45.150Z,721.50
2019-04-28T06:05:20.378Z,734.50
2019-04-28T06:05:57.076Z,729.90
2019-04-28T06:06:31.070Z,734.40
2019-04-28T06:07:06.366Z,732.30
2019-04-28T06:07:41.986Z,730.80
2019-04-28T06:08:17.176Z,743.10
2019-04-28T06:08:52.521Z,738.50
2019-04-28T06:09:29.429Z,734.80
2019-04-28T06:10:03.444Z,740.60
2019-04-28T06:10:39.943Z,713.60
2019-04-28T06:11:14.230Z,725.80
2019-04-28T06:11:49.730Z,736.80
2019-04-28T06:12:25.180Z,734.80
2019-04-28T06:13:00.578Z,731.50
2019-04-28T06:13:35.917Z,720.60
2019-04-28T06:14:11.119Z,731.10
2019-04-28T06:14:46.589Z,740.40
2019-04-28T06:15:21.896Z,748.70
2019-04-28T06:15:57.212Z,751.20
2019-04-28T06:16:32.809Z,744.10
2019-04-28T06:17:08.030Z,743.10
2019-04-28T06:17:43.470Z,742.70
2019-04-28T06:18:20.482Z,742.70
2019-04-28T06:18:54.347Z,730.20
2019-04-28T06:19:30.163Z,726.40
2019-04-28T06:20:05.283Z,726.80
2019-04-28T06:20:40.658Z,743.20
2019-04-28T06:21:15.696Z,764.10
2019-04-28T06:21:50.961Z,761.30
2019-04-28T06:22:26.261Z,763.30
2019-04-28T06:23:01.384Z,762.40
2019-04-28T06:23:36.568Z,753.30
2019-04-28T06:24:12.013Z,762.90
2019-04-28T06:24:47.451Z,783.40
2019-04-28T06:25:22.774Z,767.00
2019-04-28T06:25:58.174Z,762.20
2019-04-28T06:26:33.798Z,777.20
2019-04-28T06:27:08.898Z,748.00
2019-04-28T06:27:44.434Z,770.80
2019-04-28T06:28:19.733Z,784.30
2019-04-28T06:28:54.987Z,788.90
2019-04-28T06:29:30.371Z,795.00
2019-04-28T06:30:05.509Z,795.70
2019-04-28T06:30:41.099Z,791.20
2019-04-28T06:31:16.621Z,791.50
2019-04-28T06:31:52.003Z,799.90
2019-04-28T06:32:27.421Z,807.90
2019-04-28T06:33:08.116Z,805.20
2019-04-28T06:33:38.153Z,778.30
2019-04-28T06:34:13.941Z,795.80
2019-04-28T06:34:49.492Z,809.30
2019-04-28T06:35:24.812Z,802.80
2019-04-28T06:36:00.141Z,807.00
2019-04-28T06:36:35.921Z,814.20
2019-04-28T06:37:11.244Z,810.00
2019-04-28T06:37:46.723Z,799.30
2019-04-28T06:38:22.137Z,802.00
2019-04-28T06:38:57.637Z,813.60
2019-04-28T06:39:32.970Z,818.80
2019-04-28T06:40:08.391Z,826.20
2019-04-28T06:40:43.740Z,828.40
2019-04-28T06:41:19.408Z,822.50
2019-04-28T06:41:54.648Z,815.20
2019-04-28T06:42:29.839Z,815.70
2019-04-28T06:43:05.145Z,813.80
2019-04-28T06:43:40.273Z,811.90
2019-04-28T06:44:15.893Z,795.00
2019-04-28T06:44:51.123Z,808.00
2019-04-28T06:45:26.372Z,816.30
2019-04-28T06:46:01.566Z,827.80
2019-04-28T06:46:36.779Z,821.60
2019-04-28T06:47:12.180Z,800.40
2019-04-28T06:47:47.498Z,816.30
2019-04-28T06:48:23.051Z,829.50
2019-04-28T06:48:58.487Z,809.80
2019-04-28T06:49:34.175Z,795.70
2019-04-28T06:50:09.693Z,819.30
2019-04-28T06:50:45.128Z,836.80
2019-04-28T06:51:20.856Z,835.10
2019-04-28T06:51:56.147Z,837.30
2019-04-28T06:52:31.255Z,832.70
2019-04-28T06:53:06.770Z,829.90
2019-04-28T06:53:42.194Z,836.30
2019-04-28T06:54:17.399Z,840.50
2019-04-28T06:54:52.838Z,837.30
2019-04-28T06:55:28.157Z,838.50
2019-04-28T06:56:03.286Z,850.20
2019-04-28T06:56:42.597Z,849.70
2019-04-28T06:57:18.024Z,828.50
2019-04-28T06:57:53.516Z,825.70
2019-04-28T06:58:28.755Z,852.50
2019-04-28T06:59:04.039Z,845.40
2019-04-28T06:59:39.351Z,826.80
2019-04-28T07:00:14.771Z,816.60
2019-04-28T07:00:50.318Z,848.10
2019-04-28T07:01:25.621Z,854.40
2019-04-28T07:02:01.354Z,853.10
2019-04-28T07:02:36.636Z,857.80
2019-04-28T07:03:22.629Z,853.30
2019-04-28T07:03:47.852Z,856.60
2019-04-28T07:04:23.273Z,863.10
2019-04-28T07:05:02.191Z,861.50
2019-04-28T07:05:34.365Z,859.90
2019-04-28T07:06:09.978Z,866.00
2019-04-28T07:06:45.653Z,871.00
2019-04-28T07:07:20.857Z,875.80
2019-04-28T07:07:56.182Z,849.70
2019-04-28T07:08:31.263Z,857.00
2019-04-28T07:09:06.699Z,863.20
2019-04-28T07:09:41.781Z,850.50
2019-04-28T07:10:17.114Z,837.20
2019-04-28T07:10:52.735Z,854.90
2019-04-28T07:11:28.059Z,845.90
2019-04-28T07:12:03.352Z,864.10
2019-04-28T07:12:38.574Z,889.40
2019-04-28T07:13:13.972Z,866.00
2019-04-28T07:13:49.296Z,859.10
2019-04-28T07:14:24.967Z,866.30
2019-04-28T07:15:00.478Z,855.60
2019-04-28T07:15:35.771Z,887.30
2019-04-28T07:16:11.030Z,884.40
2019-04-28T07:16:46.250Z,875.20
2019-04-28T07:17:21.452Z,888.00
2019-04-28T07:17:57.035Z,890.10
2019-04-28T07:18:32.147Z,870.30
2019-04-28T07:19:07.332Z,860.10
2019-04-28T07:19:42.814Z,879.10
2019-04-28T07:20:18.309Z,873.70
2019-04-28T07:20:53.859Z,879.90
2019-04-28T07:21:29.082Z,903.00